Decoded Metar for LFRS (NANTES in FRANCE) (IATA:NTE) | Meteo·Mobile Aviation Weather
aviador You're here:

LFRS Decoded Metar

NANTES in FRANCE
Report Time2018-11-19 22:00:00
UTC Time2018-11-19 22:31:25
Flight Rules vfr VFR
Wind360° at 04 kt
W.Decomp.*RWY 03: 3.5 kt HW 1.9 kt LCW
Visibility9999 m
Phenomena:N/A
Clouds:N/A
Expected CloudBase > 800 ft AGL from Temp-Dew spread
CeilingNone
Temp01°C (ISA -14)
Dew Point-1°C (87% RH)
AAT-2.6°C
QNH1007 hPa
Density Alt-1,312 ft
Elevation89 ft
Report Wrong Elevation
Raw Report
LFRS 192200Z AUTO 36004KT 320V040 CAVOK 01/M01 Q1007 NOSIG=

Extra information for LFRS:More info

Metar Taf Metar & Taf Last 4 Metars F.Rules Stats Wind Profile Meteogram Temp Stats Airport Information Weather charts Add Link Nearby VenuesMetar ALERT Operation Metar Decoded Social comments